createdAt,value
2019-05-12T00:02:08.669Z,59.93
2019-05-12T00:04:38.558Z,59.71
2019-05-12T00:07:08.833Z,59.27
2019-05-12T00:09:38.865Z,59.05
2019-05-12T00:12:08.432Z,59.23
2019-05-12T00:14:38.181Z,59.22
2019-05-12T00:17:08.679Z,59.85
2019-05-12T00:19:38.166Z,59.85
2019-05-12T00:22:07.805Z,60.04
2019-05-12T00:24:38.424Z,60.21
2019-05-12T00:27:10.889Z,60.36
2019-05-12T00:29:40.475Z,60.27
2019-05-12T00:32:10.038Z,59.81
2019-05-12T00:34:39.550Z,59.92
2019-05-12T00:37:09.071Z,59.94
2019-05-12T00:39:38.667Z,59.14
2019-05-12T00:42:08.176Z,59.65
2019-05-12T00:44:39.076Z,60.16
2019-05-12T00:47:08.763Z,60.75
2019-05-12T00:49:38.276Z,60.99
2019-05-12T00:52:08.163Z,61.88
2019-05-12T00:54:38.710Z,61.45
2019-05-12T00:57:08.278Z,61.67
2019-05-12T00:59:38.237Z,61.75
2019-05-12T01:02:08.128Z,61.70
2019-05-12T01:04:38.115Z,61.91
2019-05-12T01:07:08.710Z,62.03
2019-05-12T01:09:38.601Z,61.75
2019-05-12T01:12:08.203Z,61.78
2019-05-12T01:14:38.382Z,61.43
2019-05-12T01:17:08.493Z,61.39
2019-05-12T01:19:40.566Z,61.58
2019-05-12T01:22:10.347Z,61.82
2019-05-12T01:24:39.893Z,62.03
2019-05-12T01:27:28.831Z,61.98
2019-05-12T01:29:58.329Z,61.19
2019-05-12T01:32:32.785Z,61.26
2019-05-12T01:35:02.321Z,60.80
2019-05-12T01:37:31.837Z,61.34
2019-05-12T01:40:01.330Z,62.00
2019-05-12T01:42:30.838Z,62.11
2019-05-12T01:45:00.323Z,62.41
2019-05-12T01:47:29.833Z,62.64
2019-05-12T01:49:59.387Z,62.66
2019-05-12T01:52:28.854Z,62.55
2019-05-12T01:54:59.000Z,62.92
2019-05-12T01:57:29.623Z,62.96
2019-05-12T01:59:59.158Z,62.68
2019-05-12T02:02:28.722Z,62.63
2019-05-12T02:05:08.278Z,62.59
2019-05-12T02:07:58.409Z,62.32
2019-05-12T02:10:28.834Z,62.03
2019-05-12T02:12:59.482Z,62.22
2019-05-12T02:15:29.255Z,62.32
2019-05-12T02:17:59.162Z,62.17
2019-05-12T02:20:29.692Z,62.11
2019-05-12T02:22:59.205Z,61.68
2019-05-12T02:25:29.064Z,61.34
2019-05-12T02:27:59.557Z,62.17
2019-05-12T02:30:30.332Z,62.17
2019-05-12T02:33:00.242Z,62.04
2019-05-12T02:35:29.725Z,61.48
2019-05-12T02:37:59.220Z,61.78
2019-05-12T02:40:28.789Z,61.69
2019-05-12T02:42:58.281Z,61.74
2019-05-12T02:45:27.778Z,61.68
2019-05-12T02:47:57.284Z,61.63
2019-05-12T02:50:37.591Z,61.28
2019-05-12T02:53:07.901Z,60.99
2019-05-12T02:55:37.747Z,60.18
2019-05-12T02:58:07.321Z,60.43
2019-05-12T03:00:37.197Z,60.29
2019-05-12T03:03:08.438Z,60.30
2019-05-12T03:05:39.097Z,60.58
2019-05-12T03:08:08.602Z,60.65
2019-05-12T03:10:38.101Z,59.99
2019-05-12T03:13:07.601Z,60.31
2019-05-12T03:15:37.760Z,60.33
2019-05-12T03:18:07.659Z,60.42
2019-05-12T03:20:37.221Z,60.46
2019-05-12T03:23:07.141Z,60.19
2019-05-12T03:25:37.330Z,60.51
2019-05-12T03:28:09.282Z,60.27
2019-05-12T03:30:40.734Z,60.18
2019-05-12T03:33:11.943Z,60.10
2019-05-12T03:35:44.215Z,60.00
2019-05-12T03:38:14.853Z,59.80
2019-05-12T03:40:45.078Z,59.71
2019-05-12T03:43:14.887Z,59.38
2019-05-12T03:45:45.460Z,59.94
2019-05-12T03:48:16.048Z,59.38
2019-05-12T03:50:46.246Z,59.14
2019-05-12T03:53:16.257Z,59.75
2019-05-12T03:55:47.476Z,60.07
2019-05-12T03:58:17.203Z,60.37
2019-05-12T04:00:46.703Z,61.03
2019-05-12T04:03:16.204Z,60.90
2019-05-12T04:05:45.766Z,61.23
2019-05-12T04:08:16.045Z,61.11
2019-05-12T04:10:46.159Z,61.69
2019-05-12T04:13:15.887Z,61.65
2019-05-12T04:15:46.047Z,61.58
2019-05-12T04:18:16.626Z,61.61
2019-05-12T04:20:46.305Z,61.72
2019-05-12T04:23:15.989Z,61.63
2019-05-12T04:25:52.280Z,61.17
2019-05-12T04:28:16.890Z,61.50
2019-05-12T04:30:46.395Z,61.84
2019-05-12T04:33:16.177Z,61.59
2019-05-12T04:35:45.854Z,61.63
2019-05-12T04:38:15.522Z,61.38
2019-05-12T04:40:45.934Z,61.53
2019-05-12T04:43:16.488Z,61.19
2019-05-12T04:45:45.996Z,61.39
2019-05-12T04:48:20.871Z,61.39
2019-05-12T04:50:46.798Z,61.20
2019-05-12T04:53:16.256Z,61.20
2019-05-12T04:55:45.750Z,61.21
2019-05-12T04:58:16.066Z,61.22
2019-05-12T05:00:45.907Z,61.12
2019-05-12T05:03:15.415Z,61.24
2019-05-12T05:05:44.947Z,60.76
2019-05-12T05:08:19.244Z,60.64
2019-05-12T05:10:45.600Z,60.88
2019-05-12T05:13:15.354Z,60.81
2019-05-12T05:15:45.137Z,61.07
2019-05-12T05:18:14.620Z,61.05
2019-05-12T05:20:44.117Z,61.23
2019-05-12T05:23:14.357Z,61.22
2019-05-12T05:25:43.942Z,61.02
2019-05-12T05:28:14.548Z,60.48
2019-05-12T05:30:44.477Z,60.38
2019-05-12T05:33:14.611Z,60.42
2019-05-12T05:35:45.393Z,60.43
2019-05-12T05:38:20.544Z,60.30
2019-05-12T05:40:46.164Z,60.54
2019-05-12T05:43:18.683Z,59.70
2019-05-12T05:45:46.896Z,59.62
2019-05-12T05:48:16.392Z,59.44
2019-05-12T05:50:45.925Z,59.69
2019-05-12T05:53:19.571Z,59.34
2019-05-12T05:55:50.276Z,58.39
2019-05-12T05:58:17.870Z,57.25
2019-05-12T06:00:47.541Z,57.69
2019-05-12T06:03:22.933Z,57.08
2019-05-12T06:05:48.253Z,56.65
2019-05-12T06:08:20.846Z,56.99
2019-05-12T06:10:48.958Z,56.38
2019-05-12T06:13:21.191Z,56.31
2019-05-12T06:15:49.669Z,55.43
2019-05-12T06:18:19.173Z,55.60
2019-05-12T06:20:48.696Z,55.55
2019-05-12T06:23:18.208Z,55.06
2019-05-12T06:25:51.577Z,55.36
2019-05-12T06:28:18.894Z,54.58
2019-05-12T06:30:50.221Z,54.22
2019-05-12T06:33:24.124Z,53.52
2019-05-12T06:35:50.820Z,53.87
2019-05-12T06:38:20.329Z,54.26
2019-05-12T06:40:49.830Z,53.48
2019-05-12T06:43:19.333Z,54.11
2019-05-12T06:45:48.926Z,53.26
2019-05-12T06:48:19.386Z,52.62
2019-05-12T06:50:49.622Z,53.20
2019-05-12T06:53:20.354Z,52.62
2019-05-12T06:55:50.442Z,53.02
2019-05-12T06:58:26.272Z,53.76
2019-05-12T07:00:51.160Z,53.93
2019-05-12T07:03:25.782Z,53.34
2019-05-12T07:05:53.352Z,52.48
2019-05-12T07:08:27.443Z,52.71
2019-05-12T07:11:01.919Z,52.56
2019-05-12T07:13:29.406Z,52.79
2019-05-12T07:15:58.949Z,51.69
2019-05-12T07:18:32.398Z,51.30
2019-05-12T07:20:59.663Z,53.46
2019-05-12T07:23:30.131Z,52.96
2019-05-12T07:26:06.733Z,52.25
2019-05-12T07:28:36.220Z,52.47
2019-05-12T07:31:03.925Z,53.01
2019-05-12T07:33:41.401Z,52.12
2019-05-12T07:36:06.325Z,51.75
2019-05-12T07:38:37.738Z,52.99
2019-05-12T07:41:10.701Z,52.57
2019-05-12T07:43:38.879Z,52.35
2019-05-12T07:46:08.370Z,51.37
2019-05-12T07:48:40.383Z,51.68
2019-05-12T07:51:09.096Z,51.51
2019-05-12T07:53:38.621Z,52.12
2019-05-12T07:56:08.140Z,49.90
2019-05-12T07:58:40.992Z,50.93
2019-05-12T08:01:08.848Z,51.18
2019-05-12T08:03:38.448Z,51.67
2019-05-12T08:06:08.810Z,51.76
2019-05-12T08:08:41.858Z,53.83
2019-05-12T08:11:09.525Z,52.07
2019-05-12T08:13:40.969Z,50.78
2019-05-12T08:16:10.286Z,51.74
2019-05-12T08:18:41.062Z,51.60
2019-05-12T08:21:10.685Z,51.35
2019-05-12T08:23:40.185Z,51.23
2019-05-12T08:26:16.256Z,50.42
2019-05-12T08:28:40.901Z,48.88
2019-05-12T08:31:10.395Z,49.31
2019-05-12T08:33:40.390Z,48.08
2019-05-12T08:36:12.949Z,48.52
2019-05-12T08:38:41.104Z,48.82
2019-05-12T08:41:10.614Z,48.85
2019-05-12T08:43:45.631Z,48.02
2019-05-12T08:46:12.798Z,47.94
2019-05-12T08:48:44.645Z,46.84
2019-05-12T08:51:16.983Z,46.87
2019-05-12T08:53:45.086Z,45.99
2019-05-12T08:56:19.295Z,45.45
2019-05-12T08:58:51.023Z,44.91
2019-05-12T09:01:20.385Z,45.66
2019-05-12T09:03:48.661Z,46.73
2019-05-12T09:06:19.814Z,46.65
2019-05-12T09:08:49.707Z,45.50
2019-05-12T09:11:19.224Z,46.60
2019-05-12T09:13:52.760Z,45.21
2019-05-12T09:16:19.983Z,46.13
2019-05-12T09:18:49.488Z,46.35
2019-05-12T09:21:25.328Z,45.44
2019-05-12T09:23:53.343Z,44.43
2019-05-12T09:26:43.310Z,44.42
2019-05-12T09:29:13.954Z,45.17
2019-05-12T09:31:44.079Z,45.55
2019-05-12T09:34:16.428Z,44.94
2019-05-12T09:36:44.938Z,44.83
2019-05-12T09:39:14.445Z,45.37
2019-05-12T09:41:50.566Z,45.97
2019-05-12T09:44:15.149Z,43.87
2019-05-12T09:46:44.660Z,43.90
2019-05-12T09:49:14.337Z,43.78
2019-05-12T09:51:46.035Z,44.54
2019-05-12T09:54:15.602Z,44.83
2019-05-12T09:56:49.868Z,46.09
2019-05-12T09:59:22.637Z,46.60
2019-05-12T10:01:47.520Z,44.83
2019-05-12T10:04:19.590Z,46.10
2019-05-12T10:06:48.296Z,45.28
2019-05-12T10:09:19.783Z,45.89
2019-05-12T10:11:53.950Z,45.58
2019-05-12T10:14:20.335Z,45.17
2019-05-12T10:16:49.993Z,44.80
2019-05-12T10:19:19.472Z,43.33
2019-05-12T10:21:54.006Z,43.64
2019-05-12T10:24:20.170Z,43.73
2019-05-12T10:26:50.686Z,43.41
2019-05-12T10:29:20.951Z,41.99
2019-05-12T10:31:50.595Z,40.37
2019-05-12T10:34:20.366Z,40.83
2019-05-12T10:36:50.715Z,41.77
2019-05-12T10:39:21.437Z,42.26
2019-05-12T10:41:51.056Z,43.07
2019-05-12T10:44:20.551Z,42.75
2019-05-12T10:46:53.797Z,41.38
2019-05-12T10:49:23.436Z,42.58
2019-05-12T10:51:53.959Z,42.94
2019-05-12T10:54:24.244Z,41.53
2019-05-12T10:56:54.732Z,42.19
2019-05-12T10:59:32.279Z,42.24
2019-05-12T11:01:55.624Z,43.04
2019-05-12T11:04:35.674Z,41.13
2019-05-12T11:06:56.438Z,39.84
2019-05-12T11:09:30.188Z,41.02
2019-05-12T11:11:58.031Z,41.44
2019-05-12T11:14:30.485Z,40.74
2019-05-12T11:17:02.275Z,41.73
2019-05-12T11:19:33.758Z,43.31
2019-05-12T11:22:03.784Z,44.94
2019-05-12T11:24:33.759Z,46.14
2019-05-12T11:27:04.117Z,45.94
2019-05-12T11:29:45.777Z,45.04
2019-05-12T11:32:05.018Z,41.64
2019-05-12T11:34:34.690Z,41.58
2019-05-12T11:37:04.319Z,41.82
2019-05-12T11:39:37.182Z,46.72
2019-05-12T11:42:06.036Z,47.73
2019-05-12T11:44:35.593Z,49.14
2019-05-12T11:47:05.105Z,48.40
2019-05-12T11:49:34.632Z,46.76
2019-05-12T11:52:09.184Z,46.79
2019-05-12T11:54:36.011Z,47.13
2019-05-12T11:57:05.528Z,45.95
2019-05-12T11:59:35.029Z,43.88
2019-05-12T12:02:04.531Z,44.67
2019-05-12T12:04:46.158Z,42.37
2019-05-12T12:07:16.835Z,44.29
2019-05-12T12:09:49.322Z,43.41
2019-05-12T12:12:17.621Z,43.23
2019-05-12T12:14:50.310Z,42.37
2019-05-12T12:17:22.837Z,43.27
2019-05-12T12:19:49.709Z,42.13
2019-05-12T12:22:20.251Z,42.26
2019-05-12T12:24:50.434Z,42.53
2019-05-12T12:27:19.957Z,41.00
2019-05-12T12:29:49.474Z,41.69
2019-05-12T12:32:20.431Z,40.63
2019-05-12T12:34:50.102Z,39.20
2019-05-12T12:37:24.108Z,40.39
2019-05-12T12:39:50.852Z,39.37
2019-05-12T12:42:20.364Z,40.45
2019-05-12T12:44:53.530Z,41.69
2019-05-12T12:47:23.786Z,38.75
2019-05-12T12:49:53.412Z,38.55
2019-05-12T12:52:24.358Z,35.36
2019-05-12T12:54:54.355Z,35.63
2019-05-12T12:57:24.025Z,37.66
2019-05-12T12:59:53.520Z,36.83
2019-05-12T13:02:24.728Z,35.64
2019-05-12T13:04:54.407Z,36.95
2019-05-12T13:07:24.197Z,37.06
2019-05-12T13:09:55.010Z,36.73
2019-05-12T13:12:24.924Z,42.22
2019-05-12T13:14:54.413Z,42.49
2019-05-12T13:17:29.050Z,43.57
2019-05-12T13:19:58.686Z,43.41
2019-05-12T13:22:29.607Z,42.21
2019-05-12T13:25:04.343Z,40.23
2019-05-12T13:27:30.265Z,40.25
2019-05-12T13:30:02.175Z,40.35
2019-05-12T13:32:37.543Z,41.33
2019-05-12T13:35:04.221Z,41.13
2019-05-12T13:37:33.905Z,41.35
2019-05-12T13:40:03.435Z,40.61
2019-05-12T13:42:35.911Z,40.78
2019-05-12T13:45:04.565Z,41.89
2019-05-12T13:47:39.509Z,41.56
2019-05-12T13:50:06.041Z,40.95
2019-05-12T13:52:35.565Z,41.38
2019-05-12T13:55:07.577Z,42.20
2019-05-12T13:57:36.568Z,41.15
2019-05-12T14:00:10.629Z,40.76
2019-05-12T14:02:37.428Z,38.50
2019-05-12T14:05:11.470Z,39.71
2019-05-12T14:07:38.297Z,40.12
2019-05-12T14:10:09.762Z,40.39
2019-05-12T14:12:39.269Z,40.00
2019-05-12T14:15:09.456Z,40.56
2019-05-12T14:17:40.441Z,40.37
2019-05-12T14:20:15.809Z,38.07
2019-05-12T14:22:42.007Z,36.14
2019-05-12T14:25:15.130Z,37.20
2019-05-12T14:27:44.497Z,37.45
2019-05-12T14:30:14.793Z,37.08
2019-05-12T14:32:44.319Z,38.66
2019-05-12T14:35:13.968Z,38.36
2019-05-12T14:37:45.855Z,39.07
2019-05-12T14:40:15.731Z,38.62
2019-05-12T14:42:45.238Z,38.83
2019-05-12T14:45:19.625Z,38.60
2019-05-12T14:47:45.966Z,38.49
2019-05-12T14:50:15.464Z,38.79
2019-05-12T14:52:44.992Z,38.71
2019-05-12T14:55:14.499Z,38.48
2019-05-12T14:57:44.003Z,39.26
2019-05-12T15:00:21.063Z,37.40
2019-05-12T15:02:47.008Z,37.41
2019-05-12T15:05:16.578Z,38.25
2019-05-12T15:07:51.294Z,38.40
2019-05-12T15:10:17.639Z,38.01
2019-05-12T15:12:47.182Z,38.28
2019-05-12T15:15:20.636Z,37.35
2019-05-12T15:17:48.004Z,37.88
2019-05-12T15:20:17.934Z,38.16
2019-05-12T15:22:51.790Z,38.40
2019-05-12T15:25:19.037Z,36.59
2019-05-12T15:27:48.635Z,36.76
2019-05-12T15:30:23.287Z,37.95
2019-05-12T15:32:49.411Z,36.15
2019-05-12T15:35:18.947Z,36.23
2019-05-12T15:37:51.781Z,36.85
2019-05-12T15:40:19.831Z,37.58
2019-05-12T15:42:49.335Z,35.38
2019-05-12T15:45:18.864Z,36.31
2019-05-12T15:47:49.337Z,36.04
2019-05-12T15:50:18.906Z,36.41
2019-05-12T15:52:48.440Z,35.89
2019-05-12T15:55:18.619Z,36.09
2019-05-12T15:57:48.239Z,38.30
2019-05-12T16:00:17.757Z,37.86
2019-05-12T16:02:47.271Z,38.23
2019-05-12T16:05:20.065Z,36.88
2019-05-12T16:07:48.970Z,36.49
2019-05-12T16:10:18.656Z,36.17
2019-05-12T16:12:48.156Z,36.63
2019-05-12T16:15:19.393Z,36.80
2019-05-12T16:17:50.173Z,35.86
2019-05-12T16:20:19.707Z,36.39
2019-05-12T16:22:49.213Z,36.57
2019-05-12T16:25:20.638Z,36.72
2019-05-12T16:27:50.048Z,36.59
2019-05-12T16:30:20.452Z,34.88
2019-05-12T16:32:50.869Z,34.50
2019-05-12T16:35:26.395Z,34.24
2019-05-12T16:37:53.428Z,34.36
2019-05-12T16:40:23.983Z,34.40
2019-05-12T16:42:59.341Z,36.76
2019-05-12T16:45:24.679Z,37.03
2019-05-12T16:47:54.185Z,36.39
2019-05-12T16:50:27.732Z,36.13
2019-05-12T16:52:55.963Z,34.93
2019-05-12T16:55:25.463Z,33.99
2019-05-12T16:57:56.169Z,34.47
2019-05-12T17:00:25.835Z,35.16
2019-05-12T17:02:57.990Z,33.92
2019-05-12T17:05:26.538Z,34.40
2019-05-12T17:07:57.513Z,34.10
2019-05-12T17:10:27.280Z,32.19
2019-05-12T17:12:57.179Z,32.89
2019-05-12T17:15:27.299Z,32.35
2019-05-12T17:18:01.578Z,32.15
2019-05-12T17:20:30.091Z,31.56
2019-05-12T17:23:00.432Z,32.65
2019-05-12T17:25:31.110Z,32.89
2019-05-12T17:28:03.887Z,33.29
2019-05-12T17:30:34.438Z,33.99
2019-05-12T17:33:05.191Z,34.02
2019-05-12T17:35:35.306Z,34.54
2019-05-12T17:38:04.940Z,34.65
2019-05-12T17:40:34.464Z,34.14
2019-05-12T17:43:10.000Z,35.03
2019-05-12T17:45:35.323Z,34.49
2019-05-12T17:48:07.721Z,35.43
2019-05-12T17:50:40.393Z,35.44
2019-05-12T17:53:07.341Z,35.99
2019-05-12T17:55:42.672Z,36.71
2019-05-12T17:58:08.076Z,36.85
2019-05-12T18:00:41.321Z,37.41
2019-05-12T18:03:20.630Z,37.74
2019-05-12T18:05:42.404Z,37.56
2019-05-12T18:08:14.266Z,38.04
2019-05-12T18:10:43.770Z,38.11
2019-05-12T18:13:15.021Z,37.91
2019-05-12T18:15:44.794Z,38.32
2019-05-12T18:18:17.262Z,38.54
2019-05-12T18:20:45.518Z,38.54
2019-05-12T18:23:19.918Z,38.63
2019-05-12T18:25:46.281Z,38.44
2019-05-12T18:28:15.798Z,38.35
2019-05-12T18:30:45.312Z,37.99
2019-05-12T18:33:28.363Z,38.47
2019-05-12T18:35:46.061Z,38.77
2019-05-12T18:38:21.557Z,39.23
2019-05-12T18:40:46.844Z,39.24
2019-05-12T18:43:16.357Z,39.78
2019-05-12T18:45:48.629Z,40.27
2019-05-12T18:48:22.061Z,39.90
2019-05-12T18:50:48.257Z,40.57
2019-05-12T18:53:27.725Z,40.49
2019-05-12T18:55:48.990Z,40.25
2019-05-12T18:58:21.635Z,40.34
2019-05-12T19:00:49.719Z,40.55
2019-05-12T19:03:20.757Z,40.44
2019-05-12T19:05:50.420Z,40.80
2019-05-12T19:08:20.516Z,40.58
2019-05-12T19:10:52.922Z,40.87
2019-05-12T19:13:22.524Z,40.98
2019-05-12T19:15:52.735Z,41.10
2019-05-12T19:18:24.343Z,41.29
2019-05-12T19:20:54.957Z,41.05
2019-05-12T19:23:26.895Z,41.20
2019-05-12T19:25:55.874Z,41.27
2019-05-12T19:28:25.379Z,40.94
2019-05-12T19:31:01.068Z,40.90
2019-05-12T19:33:26.786Z,41.03
2019-05-12T19:36:04.333Z,40.83
2019-05-12T19:38:28.067Z,41.10
2019-05-12T19:41:00.785Z,41.33
2019-05-12T19:43:29.332Z,40.93
2019-05-12T19:46:03.351Z,41.06
2019-05-12T19:48:35.191Z,41.29
2019-05-12T19:51:15.944Z,41.46
2019-05-12T19:53:33.230Z,41.29
2019-05-12T19:56:03.864Z,41.51
2019-05-12T19:58:34.089Z,41.74
2019-05-12T20:01:03.805Z,41.97
2019-05-12T20:03:33.640Z,42.32
2019-05-12T20:06:03.904Z,42.33
2019-05-12T20:08:33.937Z,42.29
2019-05-12T20:11:03.814Z,42.27
2019-05-12T20:13:40.035Z,42.54
2019-05-12T20:16:11.624Z,42.64
2019-05-12T20:18:42.727Z,42.30
2019-05-12T20:21:10.265Z,42.49
2019-05-12T20:23:39.799Z,42.72
2019-05-12T20:26:09.326Z,42.88
2019-05-12T20:28:42.161Z,42.93
2019-05-12T20:31:10.112Z,43.05
2019-05-12T20:33:39.636Z,42.98
2019-05-12T20:36:09.219Z,43.42
2019-05-12T20:38:40.661Z,43.48
2019-05-12T20:41:10.916Z,43.74
2019-05-12T20:43:44.162Z,44.11
2019-05-12T20:46:21.532Z,44.02
2019-05-12T20:48:44.637Z,44.14
2019-05-12T20:51:18.704Z,44.24
2019-05-12T20:53:45.651Z,44.43
2019-05-12T20:56:20.002Z,44.37
2019-05-12T20:58:46.685Z,44.38
2019-05-12T21:01:20.292Z,44.60
2019-05-12T21:03:50.840Z,44.91
2019-05-12T21:06:18.697Z,45.27
2019-05-12T21:08:53.667Z,46.12
2019-05-12T21:11:19.378Z,46.36
2019-05-12T21:13:49.925Z,47.19
2019-05-12T21:16:25.353Z,47.71
2019-05-12T21:19:05.641Z,47.63
2019-05-12T21:21:27.674Z,47.70
2019-05-12T21:23:54.355Z,47.73
2019-05-12T21:26:28.569Z,47.96
2019-05-12T21:28:55.613Z,47.95
2019-05-12T21:31:28.066Z,47.90
2019-05-12T21:33:56.423Z,47.82
2019-05-12T21:36:27.457Z,48.05
2019-05-12T21:39:04.402Z,48.14
2019-05-12T21:41:28.755Z,48.22
2019-05-12T21:44:00.150Z,48.47
2019-05-12T21:46:29.557Z,48.55
2019-05-12T21:49:09.244Z,48.66
2019-05-12T21:51:34.038Z,48.59
2019-05-12T21:54:04.013Z,48.62
2019-05-12T21:56:37.925Z,48.75
2019-05-12T21:59:06.065Z,48.77
2019-05-12T22:01:43.269Z,49.02
2019-05-12T22:04:06.924Z,49.25
2019-05-12T22:06:36.447Z,49.38
2019-05-12T22:09:07.211Z,49.44
2019-05-12T22:11:43.957Z,49.70
2019-05-12T22:14:07.909Z,49.73
2019-05-12T22:16:43.684Z,49.85
2019-05-12T22:19:10.249Z,50.25
2019-05-12T22:21:47.588Z,50.26
2019-05-12T22:24:10.955Z,50.21
2019-05-12T22:26:44.176Z,50.43
2019-05-12T22:29:13.540Z,50.37
2019-05-12T22:31:44.745Z,50.76
2019-05-12T22:34:14.084Z,51.61
2019-05-12T22:36:45.410Z,52.20
2019-05-12T22:39:14.801Z,52.31
2019-05-12T22:41:44.312Z,52.44
2019-05-12T22:44:18.710Z,52.29
2019-05-12T22:46:45.030Z,52.38
2019-05-12T22:49:16.822Z,51.99
2019-05-12T22:51:46.591Z,52.29
2019-05-12T22:54:16.322Z,52.25
2019-05-12T22:56:49.620Z,52.35
2019-05-12T22:59:17.997Z,52.42
2019-05-12T23:01:47.508Z,52.51
2019-05-12T23:04:17.009Z,52.24
2019-05-12T23:06:46.935Z,52.52
2019-05-12T23:09:19.521Z,52.46
2019-05-12T23:11:47.691Z,52.47
2019-05-12T23:14:22.208Z,52.30
2019-05-12T23:16:49.456Z,52.27
2019-05-12T23:19:18.943Z,52.45
2019-05-12T23:21:49.361Z,52.69
2019-05-12T23:24:19.638Z,53.40
2019-05-12T23:26:49.151Z,53.82
2019-05-12T23:29:20.538Z,53.80
2019-05-12T23:31:49.851Z,54.07
2019-05-12T23:34:19.358Z,54.20
2019-05-12T23:36:50.370Z,54.61
2019-05-12T23:39:20.055Z,54.40
2019-05-12T23:41:49.559Z,54.31
2019-05-12T23:44:19.053Z,54.48
2019-05-12T23:46:48.535Z,54.58
2019-05-12T23:49:18.028Z,54.43
2019-05-12T23:51:47.504Z,53.99
2019-05-12T23:54:16.988Z,54.12
2019-05-12T23:56:46.479Z,54.46
2019-05-12T23:59:15.992Z,54.42
